createdAt,value
2017-12-17T00:01:22.374Z,17.20
2017-12-17T00:03:49.184Z,18.73
2017-12-17T00:06:15.938Z,17.23
2017-12-17T00:08:42.706Z,17.53
2017-12-17T00:11:09.459Z,14.70
2017-12-17T00:13:36.210Z,15.53
2017-12-17T00:16:02.978Z,16.87
2017-12-17T00:18:29.772Z,17.33
2017-12-17T00:20:56.516Z,13.40
2017-12-17T00:23:23.267Z,11.40
2017-12-17T00:25:50.057Z,11.43
2017-12-17T00:28:16.861Z,11.27
2017-12-17T00:30:43.582Z,20.20
2017-12-17T00:33:10.435Z,11.40
2017-12-17T00:35:37.204Z,10.40
2017-12-17T00:38:03.927Z,10.90
2017-12-17T00:40:30.652Z,11.07
2017-12-17T00:42:57.398Z,10.67
2017-12-17T00:45:24.156Z,11.70
2017-12-17T00:47:50.912Z,11.17
2017-12-17T00:50:17.664Z,15.50
2017-12-17T00:52:44.425Z,9.73
2017-12-17T00:55:11.205Z,11.93
2017-12-17T00:57:37.945Z,12.50
2017-12-17T01:00:04.687Z,13.43
2017-12-17T01:02:31.423Z,10.67
2017-12-17T01:04:58.135Z,10.80
2017-12-17T01:07:24.884Z,11.40
2017-12-17T01:09:51.642Z,9.90
2017-12-17T01:12:18.397Z,11.47
2017-12-17T01:14:45.120Z,11.60
2017-12-17T01:17:11.878Z,12.67
2017-12-17T01:19:38.628Z,15.90
2017-12-17T01:22:05.361Z,8.97
2017-12-17T01:24:32.193Z,9.57
2017-12-17T01:26:58.942Z,11.02
2017-12-17T01:29:25.650Z,11.50
2017-12-17T01:31:52.388Z,11.60
2017-12-17T01:34:19.127Z,11.87
2017-12-17T01:36:45.871Z,12.40
2017-12-17T01:39:12.604Z,10.30
2017-12-17T01:41:39.357Z,10.60
2017-12-17T01:44:06.084Z,12.23
2017-12-17T01:46:32.850Z,10.50
2017-12-17T01:48:59.629Z,14.77
2017-12-17T01:51:27.379Z,13.53
2017-12-17T01:53:54.147Z,11.63
2017-12-17T01:56:20.905Z,9.03
2017-12-17T01:58:47.666Z,13.13
2017-12-17T02:01:14.453Z,8.60
2017-12-17T02:03:41.213Z,9.57
2017-12-17T02:06:07.950Z,9.87
2017-12-17T02:08:34.719Z,11.23
2017-12-17T02:11:01.496Z,9.60
2017-12-17T02:13:28.267Z,12.68
2017-12-17T02:15:55.189Z,9.65
2017-12-17T02:18:21.952Z,8.10
2017-12-17T02:20:48.740Z,10.57
2017-12-17T02:23:15.517Z,11.75
2017-12-17T02:25:42.274Z,9.40
2017-12-17T02:28:09.032Z,9.65
2017-12-17T02:30:35.800Z,8.30
2017-12-17T02:33:02.554Z,10.43
2017-12-17T02:35:29.314Z,9.60
2017-12-17T02:37:56.090Z,9.43
2017-12-17T02:40:22.858Z,8.63
2017-12-17T02:42:49.617Z,8.90
2017-12-17T02:45:16.397Z,9.23
2017-12-17T02:47:43.148Z,8.60
2017-12-17T02:50:09.898Z,9.32
2017-12-17T02:52:36.673Z,6.78
2017-12-17T02:55:03.417Z,8.82
2017-12-17T02:57:30.181Z,10.40
2017-12-17T02:59:56.964Z,8.10
2017-12-17T03:02:23.737Z,7.82
2017-12-17T03:04:50.510Z,11.60
2017-12-17T03:07:17.273Z,9.15
2017-12-17T03:09:44.059Z,11.23
2017-12-17T03:12:10.811Z,9.15
2017-12-17T03:14:37.586Z,7.65
2017-12-17T03:17:04.332Z,6.75
2017-12-17T03:19:31.086Z,10.27
2017-12-17T03:21:57.853Z,7.55
2017-12-17T03:24:24.640Z,6.25
2017-12-17T03:26:51.390Z,7.07
2017-12-17T03:29:18.161Z,11.63
2017-12-17T03:31:44.936Z,7.28
2017-12-17T03:34:11.682Z,6.97
2017-12-17T03:36:38.453Z,6.40
2017-12-17T03:39:05.218Z,8.70
2017-12-17T03:41:31.980Z,10.35
2017-12-17T03:43:58.751Z,7.68
2017-12-17T03:46:25.508Z,6.85
2017-12-17T03:48:52.287Z,6.60
2017-12-17T03:51:19.053Z,9.82
2017-12-17T03:53:45.799Z,6.72
2017-12-17T03:56:12.570Z,6.45
2017-12-17T03:58:39.351Z,9.20
2017-12-17T04:01:06.107Z,7.18
2017-12-17T04:03:32.867Z,6.35
2017-12-17T04:05:59.647Z,7.97
2017-12-17T04:08:26.419Z,7.18
2017-12-17T04:10:53.175Z,6.22
2017-12-17T04:13:19.948Z,7.68
2017-12-17T04:15:46.800Z,7.68
2017-12-17T04:18:13.589Z,10.93
2017-12-17T04:20:41.294Z,11.95
2017-12-17T04:23:08.053Z,10.60
2017-12-17T04:25:34.804Z,6.35
2017-12-17T04:28:01.577Z,8.38
2017-12-17T04:30:28.326Z,6.85
2017-12-17T04:32:55.079Z,7.15
2017-12-17T04:35:21.875Z,5.55
2017-12-17T04:37:48.626Z,8.30
2017-12-17T04:40:15.383Z,6.97
2017-12-17T04:42:42.157Z,7.40
2017-12-17T04:45:08.922Z,7.80
2017-12-17T04:47:35.691Z,15.05
2017-12-17T04:50:02.433Z,6.95
2017-12-17T04:52:29.175Z,7.43
2017-12-17T04:54:55.921Z,8.20
2017-12-17T04:57:22.688Z,7.12
2017-12-17T04:59:49.459Z,6.55
2017-12-17T05:02:16.312Z,8.70
2017-12-17T05:04:43.069Z,6.72
2017-12-17T05:07:09.823Z,8.40
2017-12-17T05:09:36.570Z,7.87
2017-12-17T05:12:03.346Z,7.93
2017-12-17T05:14:30.096Z,9.93
2017-12-17T05:16:56.859Z,8.80
2017-12-17T05:19:23.611Z,9.20
2017-12-17T05:21:50.366Z,8.00
2017-12-17T05:24:17.123Z,7.32
2017-12-17T05:26:43.869Z,6.78
2017-12-17T05:29:10.645Z,11.12
2017-12-17T05:31:37.403Z,10.18
2017-12-17T05:34:04.230Z,8.57
2017-12-17T05:36:30.994Z,6.87
2017-12-17T05:38:57.723Z,7.75
2017-12-17T05:41:24.501Z,6.32
2017-12-17T05:43:51.302Z,6.95
2017-12-17T05:46:18.061Z,7.62
2017-12-17T05:48:44.878Z,13.13
2017-12-17T05:51:11.597Z,9.45
2017-12-17T05:53:38.354Z,9.52
2017-12-17T05:56:05.118Z,6.43
2017-12-17T05:58:31.894Z,6.95
2017-12-17T06:00:58.648Z,9.25
2017-12-17T06:03:25.432Z,9.63
2017-12-17T06:05:52.176Z,8.00
2017-12-17T06:08:18.924Z,8.90
2017-12-17T06:10:45.704Z,9.40
2017-12-17T06:13:12.446Z,9.88
2017-12-17T06:15:39.200Z,6.82
2017-12-17T06:18:06.004Z,11.38
2017-12-17T06:20:32.774Z,14.13
2017-12-17T06:22:59.583Z,9.15
2017-12-17T06:25:26.403Z,7.15
2017-12-17T06:27:53.155Z,7.10
2017-12-17T06:30:19.902Z,9.55
2017-12-17T06:32:46.671Z,10.00
2017-12-17T06:35:13.414Z,7.62
2017-12-17T06:37:40.177Z,11.25
2017-12-17T06:40:06.964Z,12.23
2017-12-17T06:42:33.731Z,9.07
2017-12-17T06:45:00.491Z,7.85
2017-12-17T06:47:27.266Z,9.10
2017-12-17T06:49:54.024Z,9.00
2017-12-17T06:52:20.754Z,8.40
2017-12-17T06:54:47.515Z,7.90
2017-12-17T06:57:14.286Z,15.30
2017-12-17T06:59:41.064Z,10.60
2017-12-17T07:02:07.870Z,11.32
2017-12-17T07:04:34.602Z,8.18
2017-12-17T07:07:01.350Z,8.70
2017-12-17T07:09:28.111Z,7.62
2017-12-17T07:11:54.901Z,9.13
2017-12-17T07:14:21.669Z,7.55
2017-12-17T07:16:48.430Z,12.93
2017-12-17T07:19:15.190Z,7.82
2017-12-17T07:21:41.967Z,10.48
2017-12-17T07:24:08.728Z,7.80
2017-12-17T07:26:35.452Z,9.30
2017-12-17T07:29:02.227Z,11.27
2017-12-17T07:31:29.047Z,9.40
2017-12-17T07:33:55.864Z,11.35
2017-12-17T07:36:22.613Z,10.10
2017-12-17T07:38:49.386Z,9.38
2017-12-17T07:41:16.447Z,9.50
2017-12-17T07:43:43.199Z,12.98
2017-12-17T07:46:10.024Z,12.82
2017-12-17T07:48:36.770Z,12.55
2017-12-17T07:51:03.538Z,10.32
2017-12-17T07:53:30.378Z,14.23
2017-12-17T07:55:57.173Z,12.23
2017-12-17T07:58:23.980Z,13.02
2017-12-17T08:00:50.767Z,17.62
2017-12-17T08:03:17.521Z,15.65
2017-12-17T08:05:44.294Z,15.93
2017-12-17T08:08:11.084Z,13.90
2017-12-17T08:10:37.850Z,10.68
2017-12-17T08:13:04.665Z,14.60
2017-12-17T08:15:31.445Z,16.20
2017-12-17T08:17:58.199Z,12.57
2017-12-17T08:20:24.982Z,11.65
2017-12-17T08:22:51.831Z,15.88
2017-12-17T08:25:18.604Z,13.62
2017-12-17T08:27:45.436Z,16.10
2017-12-17T08:30:12.228Z,13.13
2017-12-17T08:32:38.996Z,17.20
2017-12-17T08:35:05.809Z,15.90
2017-12-17T08:37:32.594Z,13.35
2017-12-17T08:39:59.362Z,15.20
2017-12-17T08:42:26.140Z,20.55
2017-12-17T08:44:52.932Z,16.05
2017-12-17T08:47:19.689Z,21.50
2017-12-17T08:49:47.337Z,19.23
2017-12-17T08:52:14.449Z,20.90
2017-12-17T08:54:41.287Z,28.83
2017-12-17T08:57:08.062Z,21.97
2017-12-17T08:59:34.856Z,21.92
2017-12-17T09:02:01.616Z,18.63
2017-12-17T09:04:28.395Z,17.87
2017-12-17T09:06:55.160Z,20.08
2017-12-17T09:09:21.985Z,16.73
2017-12-17T09:11:48.715Z,16.10
2017-12-17T09:14:15.463Z,14.93
2017-12-17T09:16:42.226Z,19.90
2017-12-17T09:19:08.983Z,24.00
2017-12-17T09:21:35.769Z,17.10
2017-12-17T09:24:02.543Z,22.70
2017-12-17T09:26:29.314Z,18.00
2017-12-17T09:28:56.083Z,17.23
2017-12-17T09:31:22.834Z,16.67
2017-12-17T09:33:49.604Z,20.07
2017-12-17T09:36:16.423Z,19.13
2017-12-17T09:38:43.199Z,14.33
2017-12-17T09:41:09.945Z,18.93
2017-12-17T09:43:36.722Z,19.13
2017-12-17T09:46:03.488Z,19.43
2017-12-17T09:48:30.266Z,18.40
2017-12-17T09:50:57.020Z,15.97
2017-12-17T09:53:23.802Z,19.90
2017-12-17T09:55:50.606Z,17.67
2017-12-17T09:58:17.366Z,23.73
2017-12-17T10:00:44.214Z,18.50
2017-12-17T10:03:10.938Z,21.73
2017-12-17T10:05:37.732Z,26.47
2017-12-17T10:08:04.504Z,23.20
2017-12-17T10:10:31.285Z,25.90
2017-12-17T10:12:58.039Z,23.50
2017-12-17T10:15:24.816Z,26.60
2017-12-17T10:17:51.580Z,28.63
2017-12-17T10:20:18.358Z,19.57
2017-12-17T10:22:45.119Z,20.97
2017-12-17T10:25:11.860Z,25.90
2017-12-17T10:27:38.640Z,20.93
2017-12-17T10:30:05.400Z,21.73
2017-12-17T10:32:32.157Z,17.60
2017-12-17T10:34:58.931Z,24.93
2017-12-17T10:37:25.687Z,21.87
2017-12-17T10:40:02.887Z,22.20
2017-12-17T10:42:29.656Z,20.50
2017-12-17T10:44:56.439Z,20.10
2017-12-17T10:47:23.219Z,22.90
2017-12-17T10:49:50.014Z,20.07
2017-12-17T10:52:16.771Z,18.23
2017-12-17T10:54:43.538Z,21.60
2017-12-17T10:57:10.301Z,17.30
2017-12-17T10:59:37.070Z,16.70
2017-12-17T11:02:03.870Z,17.10
2017-12-17T11:04:30.661Z,15.63
2017-12-17T11:06:57.403Z,18.47
2017-12-17T11:09:24.167Z,15.67
2017-12-17T11:11:50.927Z,19.83
2017-12-17T11:14:17.720Z,16.47
2017-12-17T11:16:44.495Z,15.80
2017-12-17T11:19:11.284Z,16.63
2017-12-17T11:21:38.042Z,15.03
2017-12-17T11:24:04.797Z,17.13
2017-12-17T11:26:31.558Z,15.03
2017-12-17T11:28:58.320Z,20.13
2017-12-17T11:31:25.102Z,20.60
2017-12-17T11:33:51.939Z,18.90
2017-12-17T11:36:42.965Z,18.13
2017-12-17T11:39:32.299Z,16.57
2017-12-17T11:42:10.342Z,16.03
2017-12-17T11:44:37.138Z,15.60
2017-12-17T11:47:03.899Z,15.97
2017-12-17T11:49:30.696Z,14.30
2017-12-17T11:51:57.456Z,12.63
2017-12-17T11:54:24.228Z,14.60
2017-12-17T11:56:50.987Z,10.63
2017-12-17T11:59:17.732Z,10.47
2017-12-17T12:01:44.484Z,16.80
2017-12-17T12:04:11.238Z,13.10
2017-12-17T12:06:37.995Z,10.40
2017-12-17T12:09:04.792Z,8.97
2017-12-17T12:11:31.565Z,7.17
2017-12-17T12:13:58.304Z,5.80
2017-12-17T12:16:25.082Z,4.70
2017-12-17T12:18:51.834Z,4.97
2017-12-17T12:21:18.614Z,7.20
2017-12-17T12:23:45.362Z,7.73
2017-12-17T12:26:12.132Z,5.60
2017-12-17T12:28:38.886Z,5.67
2017-12-17T12:31:05.660Z,12.43
2017-12-17T12:33:32.450Z,8.27
2017-12-17T12:35:59.201Z,9.03
2017-12-17T12:38:25.938Z,9.80
2017-12-17T12:40:52.689Z,7.23
2017-12-17T12:43:19.435Z,7.67
2017-12-17T12:45:46.161Z,8.70
2017-12-17T12:48:12.926Z,7.90
2017-12-17T12:50:39.693Z,7.73
2017-12-17T12:53:06.435Z,13.73
2017-12-17T12:55:33.186Z,7.17
2017-12-17T12:57:59.926Z,9.03
2017-12-17T13:00:26.678Z,7.73
2017-12-17T13:02:53.433Z,8.07
2017-12-17T13:05:20.185Z,8.73
2017-12-17T13:07:46.922Z,16.30
2017-12-17T13:10:13.894Z,8.73
2017-12-17T13:12:40.656Z,9.93
2017-12-17T13:15:07.393Z,7.90
2017-12-17T13:17:34.147Z,12.87
2017-12-17T13:20:00.923Z,5.97
2017-12-17T13:22:27.740Z,7.80
2017-12-17T13:24:54.510Z,6.00
2017-12-17T13:27:21.326Z,6.40
2017-12-17T13:29:48.065Z,7.10
2017-12-17T13:32:15.603Z,10.53
2017-12-17T13:34:42.313Z,7.43
2017-12-17T13:37:09.254Z,5.17
2017-12-17T13:39:36.020Z,8.87
2017-12-17T13:42:02.960Z,6.10
2017-12-17T13:44:29.752Z,12.70
2017-12-17T13:46:56.479Z,11.70
2017-12-17T13:49:23.236Z,11.73
2017-12-17T13:51:49.977Z,12.10
2017-12-17T13:54:16.767Z,6.27
2017-12-17T13:56:43.579Z,4.60
2017-12-17T13:59:10.354Z,8.13
2017-12-17T14:01:37.118Z,6.30
2017-12-17T14:04:03.849Z,4.53
2017-12-17T14:06:30.597Z,8.33
2017-12-17T14:08:57.351Z,5.90
2017-12-17T14:11:24.107Z,18.13
2017-12-17T14:13:50.855Z,5.20
2017-12-17T14:16:17.614Z,11.23
2017-12-17T14:18:44.401Z,7.20
2017-12-17T14:21:11.167Z,5.07
2017-12-17T14:23:37.931Z,5.77
2017-12-17T14:26:04.669Z,7.20
2017-12-17T14:28:31.409Z,4.60
2017-12-17T14:30:58.157Z,5.97
2017-12-17T14:33:24.887Z,5.13
2017-12-17T14:35:51.646Z,6.13
2017-12-17T14:38:37.180Z,4.23
2017-12-17T14:41:03.939Z,5.57
2017-12-17T14:43:30.741Z,8.30
2017-12-17T14:45:57.529Z,6.33
2017-12-17T14:48:24.302Z,4.30
2017-12-17T14:50:51.042Z,5.67
2017-12-17T14:53:17.803Z,5.63
2017-12-17T14:55:44.544Z,5.50
2017-12-17T14:58:11.290Z,5.90
2017-12-17T15:00:38.031Z,3.80
2017-12-17T15:03:04.769Z,3.97
2017-12-17T15:05:31.525Z,5.33
2017-12-17T15:07:58.290Z,4.73
2017-12-17T15:10:25.030Z,5.37
2017-12-17T15:12:51.790Z,4.13
2017-12-17T15:15:18.575Z,3.73
2017-12-17T15:17:45.327Z,5.40
2017-12-17T15:20:12.090Z,5.27
2017-12-17T15:22:38.859Z,5.10
2017-12-17T15:25:05.616Z,4.47
2017-12-17T15:27:32.341Z,7.37
2017-12-17T15:29:59.091Z,4.97
2017-12-17T15:32:26.463Z,6.33
2017-12-17T15:34:56.126Z,7.40
2017-12-17T15:40:00.829Z,6.40
2017-12-17T15:42:27.579Z,5.50
2017-12-17T15:44:54.368Z,5.23
2017-12-17T15:47:21.116Z,4.97
2017-12-17T15:49:47.865Z,6.73
2017-12-17T15:52:14.621Z,5.17
2017-12-17T15:54:41.373Z,6.50
2017-12-17T15:57:08.133Z,5.57
2017-12-17T15:59:34.900Z,7.10
2017-12-17T16:02:01.641Z,6.87
2017-12-17T16:07:33.166Z,8.10
2017-12-17T16:10:12.822Z,8.70
2017-12-17T16:12:43.917Z,10.50
2017-12-17T16:15:30.806Z,9.97
2017-12-17T16:18:12.335Z,9.20
2017-12-17T16:20:57.806Z,8.53
2017-12-17T16:23:47.950Z,9.23
2017-12-17T16:26:30.100Z,12.40
2017-12-17T16:29:19.768Z,11.50
2017-12-17T16:31:57.198Z,16.93
2017-12-17T16:34:51.168Z,15.50
2017-12-17T16:37:40.726Z,16.27
2017-12-17T16:40:18.283Z,12.87
2017-12-17T16:43:02.374Z,14.98
2017-12-17T16:45:50.474Z,15.30
2017-12-17T16:48:31.611Z,11.80
2017-12-17T16:51:12.697Z,13.10
2017-12-17T16:54:00.448Z,13.60
2017-12-17T16:56:27.185Z,14.18
2017-12-17T16:58:53.936Z,25.02
2017-12-17T17:01:20.699Z,14.80
2017-12-17T17:03:47.463Z,15.38
2017-12-17T17:06:14.259Z,14.48
2017-12-17T17:08:40.993Z,14.93
2017-12-17T17:11:07.707Z,16.17
2017-12-17T17:13:34.462Z,13.80
2017-12-17T17:16:01.195Z,16.30
2017-12-17T17:18:27.931Z,14.47
2017-12-17T17:21:01.836Z,14.20
2017-12-17T17:23:38.317Z,13.40
2017-12-17T17:26:13.817Z,11.43
2017-12-17T17:28:51.047Z,9.18
2017-12-17T17:31:26.827Z,12.48
2017-12-17T17:33:55.243Z,7.95
2017-12-17T17:36:28.452Z,17.10
2017-12-17T17:38:59.441Z,9.32
2017-12-17T17:41:31.611Z,7.22
2017-12-17T17:44:04.975Z,11.93
2017-12-17T17:46:38.563Z,7.65
2017-12-17T17:49:13.217Z,9.40
2017-12-17T17:51:46.465Z,9.68
2017-12-17T17:54:19.434Z,8.73
2017-12-17T17:56:52.006Z,9.25
2017-12-17T17:59:29.141Z,7.05
2017-12-17T18:02:00.328Z,5.95
2017-12-17T18:04:31.711Z,6.50
2017-12-17T18:07:06.552Z,6.72
2017-12-17T18:09:39.070Z,6.90
2017-12-17T18:12:12.206Z,7.40
2017-12-17T18:14:47.022Z,8.68
2017-12-17T18:17:16.780Z,5.18
2017-12-17T18:19:54.896Z,10.68
2017-12-17T18:22:30.325Z,4.97
2017-12-17T18:25:03.520Z,4.68
2017-12-17T18:27:32.611Z,4.78
2017-12-17T18:30:01.678Z,4.55
2017-12-17T18:32:29.072Z,4.40
2017-12-17T18:35:04.386Z,5.35
2017-12-17T18:37:40.649Z,4.32
2017-12-17T18:40:11.321Z,5.30
2017-12-17T18:42:45.551Z,3.35
2017-12-17T18:45:22.071Z,2.70
2017-12-17T18:48:01.832Z,3.08
2017-12-17T18:50:42.474Z,5.37
2017-12-17T18:56:07.929Z,4.43
2017-12-17T18:58:46.653Z,3.92
2017-12-17T19:01:18.025Z,4.37
2017-12-17T19:03:48.569Z,7.43
2017-12-17T19:09:57.692Z,4.68
2017-12-17T19:12:49.974Z,4.53
2017-12-17T19:15:22.542Z,8.55
2017-12-17T19:17:49.291Z,2.75
2017-12-17T19:20:25.226Z,2.58
2017-12-17T19:26:20.639Z,3.97
2017-12-17T19:29:09.503Z,3.78
2017-12-17T19:31:55.861Z,3.50
2017-12-17T19:34:46.293Z,4.70
2017-12-17T19:37:33.338Z,3.03
2017-12-17T19:40:19.084Z,4.60
2017-12-17T19:42:58.977Z,6.10
2017-12-17T19:45:37.250Z,7.22
2017-12-17T19:48:16.091Z,8.15
2017-12-17T19:50:42.841Z,6.65
2017-12-17T19:58:59.247Z,5.28
2017-12-17T20:01:48.713Z,4.93
2017-12-17T20:04:24.611Z,6.10
2017-12-17T20:07:06.998Z,5.25
2017-12-17T20:09:44.484Z,4.35
2017-12-17T20:12:11.230Z,4.68
2017-12-17T20:14:37.970Z,5.30
2017-12-17T20:17:04.707Z,5.80
2017-12-17T20:19:31.500Z,5.50
2017-12-17T20:21:58.275Z,7.10
2017-12-17T20:24:25.034Z,4.10
2017-12-17T20:27:09.880Z,5.50
2017-12-17T20:29:36.662Z,3.20
2017-12-17T20:32:03.460Z,3.40
2017-12-17T20:34:30.223Z,3.20
2017-12-17T20:36:57.001Z,3.67
2017-12-17T20:39:23.738Z,4.78
2017-12-17T20:41:50.473Z,4.50
2017-12-17T20:44:17.215Z,3.92
2017-12-17T20:46:43.961Z,3.45
2017-12-17T20:49:10.709Z,4.10
2017-12-17T20:51:37.561Z,4.97
2017-12-17T20:54:04.344Z,3.47
2017-12-17T20:56:31.093Z,2.90
2017-12-17T20:58:57.932Z,4.10
2017-12-17T21:01:24.677Z,3.60
2017-12-17T21:03:51.402Z,7.05
2017-12-17T21:06:18.141Z,6.57
2017-12-17T21:08:44.897Z,6.00
2017-12-17T21:11:11.633Z,7.75
2017-12-17T21:13:38.370Z,6.70
2017-12-17T21:16:05.135Z,6.62
2017-12-17T21:18:31.882Z,6.90
2017-12-17T21:20:58.608Z,7.47
2017-12-17T21:23:25.334Z,6.90
2017-12-17T21:25:52.076Z,7.20
2017-12-17T21:28:18.824Z,6.03
2017-12-17T21:30:45.558Z,7.15
2017-12-17T21:33:12.279Z,9.75
2017-12-17T21:35:39.055Z,8.18
2017-12-17T21:38:05.906Z,8.43
2017-12-17T21:40:32.724Z,7.68
2017-12-17T21:42:59.439Z,8.02
2017-12-17T21:45:26.178Z,8.50
2017-12-17T21:47:52.965Z,7.12
2017-12-17T21:50:19.698Z,7.40
2017-12-17T21:52:46.930Z,8.18
2017-12-17T21:55:13.658Z,10.75
2017-12-17T21:57:40.366Z,9.95
2017-12-17T22:00:07.097Z,7.80
2017-12-17T22:02:33.821Z,8.95
2017-12-17T22:05:00.755Z,8.38
2017-12-17T22:07:27.505Z,13.55
2017-12-17T22:09:54.235Z,7.93
2017-12-17T22:12:20.969Z,7.25
2017-12-17T22:14:47.723Z,7.35
2017-12-17T22:17:14.455Z,8.90
2017-12-17T22:19:41.213Z,7.85
2017-12-17T22:22:07.982Z,9.82
2017-12-17T22:24:34.708Z,8.45
2017-12-17T22:27:01.468Z,11.20
2017-12-17T22:29:28.199Z,9.30
2017-12-17T22:31:54.961Z,8.27
2017-12-17T22:34:21.719Z,7.53
2017-12-17T22:36:48.465Z,7.45
2017-12-17T22:39:15.190Z,15.23
2017-12-17T22:41:41.914Z,13.38
2017-12-17T22:44:08.661Z,7.82
2017-12-17T22:46:35.420Z,7.30
2017-12-17T22:49:02.156Z,8.05
2017-12-17T22:51:28.918Z,8.23
2017-12-17T22:53:55.649Z,5.62
2017-12-17T22:56:22.376Z,6.65
2017-12-17T22:58:49.144Z,7.12
2017-12-17T23:01:15.870Z,9.15
2017-12-17T23:03:42.589Z,7.35
2017-12-17T23:06:09.389Z,7.28
2017-12-17T23:08:36.112Z,11.55
2017-12-17T23:11:02.842Z,7.45
2017-12-17T23:13:29.587Z,6.85
2017-12-17T23:15:56.321Z,8.85
2017-12-17T23:18:23.037Z,5.15
2017-12-17T23:20:49.771Z,6.28
2017-12-17T23:23:16.506Z,5.07
2017-12-17T23:25:43.234Z,5.20
2017-12-17T23:28:09.982Z,4.70
2017-12-17T23:30:37.598Z,7.15
2017-12-17T23:33:04.349Z,6.28
2017-12-17T23:35:31.073Z,5.85
2017-12-17T23:37:57.794Z,6.80
2017-12-17T23:40:24.515Z,7.53
2017-12-17T23:42:51.274Z,6.10
2017-12-17T23:45:17.978Z,7.22
2017-12-17T23:47:44.706Z,8.60
2017-12-17T23:50:11.439Z,8.77
2017-12-17T23:52:38.220Z,6.70
2017-12-17T23:55:04.955Z,6.78
2017-12-17T23:57:31.700Z,8.55
2017-12-17T23:59:58.416Z,8.55
